createdAt,value
2019-04-06T00:01:10.540Z,91.10
2019-04-06T00:02:19.350Z,83.90
2019-04-06T00:03:24.534Z,91.77
2019-04-06T00:04:29.872Z,87.43
2019-04-06T00:05:35.152Z,85.37
2019-04-06T00:06:41.254Z,90.50
2019-04-06T00:07:46.733Z,90.43
2019-04-06T00:08:52.513Z,94.07
2019-04-06T00:09:58.064Z,87.70
2019-04-06T00:11:03.338Z,85.77
2019-04-06T00:12:08.649Z,101.87
2019-04-06T00:13:14.061Z,88.87
2019-04-06T00:14:19.283Z,77.67
2019-04-06T00:15:24.729Z,87.53
2019-04-06T00:16:30.179Z,84.90
2019-04-06T00:17:35.594Z,90.80
2019-04-06T00:18:41.047Z,86.53
2019-04-06T00:19:46.415Z,83.23
2019-04-06T00:20:51.869Z,89.13
2019-04-06T00:21:57.480Z,82.70
2019-04-06T00:23:02.917Z,86.03
2019-04-06T00:24:09.160Z,86.70
2019-04-06T00:25:14.844Z,85.00
2019-04-06T00:26:20.383Z,87.97
2019-04-06T00:27:25.965Z,85.20
2019-04-06T00:28:32.069Z,86.47
2019-04-06T00:29:37.644Z,88.07
2019-04-06T00:31:02.096Z,87.27
2019-04-06T00:32:15.303Z,88.47
2019-04-06T00:33:21.155Z,91.83
2019-04-06T00:34:26.351Z,81.27
2019-04-06T00:35:31.739Z,81.53
2019-04-06T00:36:36.965Z,86.90
2019-04-06T00:37:42.254Z,85.13
2019-04-06T00:38:47.484Z,84.27
2019-04-06T00:39:52.814Z,85.37
2019-04-06T00:40:58.011Z,85.43
2019-04-06T00:42:03.261Z,77.90
2019-04-06T00:43:08.527Z,85.47
2019-04-06T00:44:13.853Z,79.23
2019-04-06T00:45:19.142Z,83.23
2019-04-06T00:46:24.345Z,79.47
2019-04-06T00:47:29.666Z,88.07
2019-04-06T00:48:34.839Z,83.53
2019-04-06T00:49:40.147Z,87.87
2019-04-06T00:50:45.465Z,78.43
2019-04-06T00:51:50.660Z,85.63
2019-04-06T00:52:55.841Z,92.20
2019-04-06T00:54:01.022Z,90.33
2019-04-06T00:55:06.372Z,91.40
2019-04-06T00:56:11.688Z,86.60
2019-04-06T00:57:16.977Z,84.07
2019-04-06T00:58:22.279Z,85.17
2019-04-06T00:59:27.456Z,94.77
2019-04-06T01:00:32.658Z,92.27
2019-04-06T01:01:37.902Z,82.73
2019-04-06T01:02:43.087Z,88.40
2019-04-06T01:03:48.357Z,85.07
2019-04-06T01:04:53.705Z,85.87
2019-04-06T01:05:59.010Z,89.80
2019-04-06T01:07:04.297Z,87.30
2019-04-06T01:08:09.595Z,85.20
2019-04-06T01:09:14.832Z,86.90
2019-04-06T01:10:20.246Z,85.27
2019-04-06T01:11:25.500Z,80.70
2019-04-06T01:12:30.797Z,97.27
2019-04-06T01:13:36.068Z,84.97
2019-04-06T01:14:41.248Z,91.40
2019-04-06T01:15:46.564Z,90.27
2019-04-06T01:16:51.768Z,88.43
2019-04-06T01:17:57.053Z,83.23
2019-04-06T01:34:42.846Z,90.43
2019-04-06T01:35:48.064Z,89.93
2019-04-06T01:36:53.456Z,87.47
2019-04-06T01:37:59.667Z,98.17
2019-04-06T01:39:06.170Z,98.53
2019-04-06T01:40:11.402Z,98.60
2019-04-06T01:41:16.699Z,93.30
2019-04-06T01:42:21.983Z,93.07
2019-04-06T01:43:27.216Z,92.53
2019-04-06T01:44:32.397Z,95.87
2019-04-06T01:45:37.690Z,94.83
2019-04-06T01:46:42.944Z,99.07
2019-04-06T01:47:48.382Z,103.33
2019-04-06T01:48:53.617Z,101.33
2019-04-06T01:49:58.846Z,100.03
2019-04-06T01:51:04.190Z,100.50
2019-04-06T01:52:09.587Z,93.30
2019-04-06T01:53:14.849Z,91.87
2019-04-06T01:54:20.054Z,93.30
2019-04-06T01:55:25.336Z,94.57
2019-04-06T01:56:30.592Z,92.80
2019-04-06T01:57:35.833Z,97.23
2019-04-06T01:58:41.162Z,96.00
2019-04-06T01:59:46.339Z,96.80
2019-04-06T02:01:09.124Z,88.20
2019-04-06T02:02:21.375Z,92.10
2019-04-06T02:03:27.646Z,88.40
2019-04-06T02:04:32.836Z,90.77
2019-04-06T02:05:38.064Z,96.30
2019-04-06T02:06:43.303Z,99.40
2019-04-06T02:07:49.742Z,88.03
2019-04-06T02:08:56.978Z,100.53
2019-04-06T02:10:02.160Z,100.00
2019-04-06T02:11:08.466Z,98.47
2019-04-06T02:12:13.834Z,95.13
2019-04-06T02:13:19.195Z,97.60
2019-04-06T02:14:24.414Z,92.17
2019-04-06T02:15:29.611Z,95.20
2019-04-06T02:16:34.790Z,96.90
2019-04-06T02:17:40.022Z,93.07
2019-04-06T02:18:45.350Z,97.93
2019-04-06T02:19:50.624Z,109.03
2019-04-06T02:20:55.833Z,94.53
2019-04-06T02:22:01.134Z,95.67
2019-04-06T02:23:06.384Z,103.60
2019-04-06T02:24:11.549Z,102.83
2019-04-06T02:25:16.721Z,98.67
2019-04-06T02:26:30.273Z,98.63
2019-04-06T02:27:28.860Z,97.00
2019-04-06T02:28:34.090Z,96.03
2019-04-06T02:29:39.250Z,101.13
2019-04-06T02:30:57.801Z,94.10
2019-04-06T02:32:17.769Z,100.50
2019-04-06T02:33:29.852Z,92.03
2019-04-06T02:35:02.228Z,99.33
2019-04-06T02:36:14.806Z,93.03
2019-04-06T02:37:27.477Z,96.10
2019-04-06T02:39:04.135Z,99.37
2019-04-06T02:40:27.089Z,98.00
2019-04-06T02:41:45.471Z,97.77
2019-04-06T02:43:21.751Z,96.00
2019-04-06T02:44:27.281Z,100.07
2019-04-06T02:45:32.488Z,100.03
2019-04-06T02:46:37.758Z,98.77
2019-04-06T02:47:43.053Z,108.23
2019-04-06T02:48:48.350Z,105.00
2019-04-06T02:49:53.753Z,114.17
2019-04-06T02:50:59.002Z,98.70
2019-04-06T02:52:04.204Z,103.17
2019-04-06T02:53:09.508Z,112.03
2019-04-06T02:54:14.799Z,103.63
2019-04-06T02:55:20.089Z,107.93
2019-04-06T02:56:25.323Z,107.60
2019-04-06T02:57:30.624Z,109.00
2019-04-06T02:58:36.051Z,106.73
2019-04-06T02:59:41.259Z,111.57
2019-04-06T03:00:46.892Z,106.83
2019-04-06T03:01:52.665Z,102.40
2019-04-06T03:02:58.045Z,115.90
2019-04-06T03:04:03.255Z,103.67
2019-04-06T03:05:08.624Z,110.00
2019-04-06T03:06:13.956Z,116.57
2019-04-06T03:07:19.162Z,112.97
2019-04-06T03:08:24.353Z,106.00
2019-04-06T03:09:29.763Z,110.67
2019-04-06T03:10:34.985Z,113.67
2019-04-06T03:11:40.265Z,109.17
2019-04-06T03:12:45.429Z,111.07
2019-04-06T03:13:51.098Z,114.50
2019-04-06T03:14:56.299Z,100.33
2019-04-06T03:16:04.016Z,100.47
2019-04-06T03:17:09.311Z,105.47
2019-04-06T03:18:14.768Z,109.50
2019-04-06T03:19:20.180Z,105.33
2019-04-06T03:20:25.438Z,99.80
2019-04-06T03:21:30.789Z,109.00
2019-04-06T03:22:36.034Z,109.80
2019-04-06T03:23:50.816Z,110.10
2019-04-06T03:24:48.213Z,114.43
2019-04-06T03:25:53.422Z,109.63
2019-04-06T03:27:02.221Z,114.03
2019-04-06T03:28:05.351Z,105.20
2019-04-06T03:29:10.626Z,108.97
2019-04-06T03:30:15.949Z,112.70
2019-04-06T03:31:25.041Z,112.90
2019-04-06T03:32:28.129Z,115.43
2019-04-06T03:33:33.377Z,114.87
2019-04-06T03:34:38.696Z,116.73
2019-04-06T03:35:47.905Z,116.27
2019-04-06T03:36:50.772Z,116.83
2019-04-06T03:37:56.248Z,121.13
2019-04-06T03:39:01.570Z,122.60
2019-04-06T03:40:09.938Z,119.20
2019-04-06T03:41:15.316Z,121.40
2019-04-06T03:42:20.447Z,127.80
2019-04-06T03:43:25.828Z,137.37
2019-04-06T03:44:31.085Z,124.17
2019-04-06T03:45:36.317Z,130.13
2019-04-06T03:46:41.522Z,131.60
2019-04-06T03:47:46.805Z,132.03
2019-04-06T03:48:52.067Z,121.30
2019-04-06T03:49:57.275Z,126.83
2019-04-06T03:51:02.435Z,130.47
2019-04-06T03:52:07.609Z,137.03
2019-04-06T03:53:12.904Z,134.53
2019-04-06T03:54:18.171Z,132.20
2019-04-06T03:55:23.551Z,134.20
2019-04-06T03:56:28.747Z,137.07
2019-04-06T03:57:33.920Z,131.27
2019-04-06T03:58:39.155Z,137.60
2019-04-06T03:59:44.268Z,130.13
2019-04-06T04:00:52.324Z,142.40
2019-04-06T04:01:57.590Z,144.07
2019-04-06T04:03:02.980Z,134.27
2019-04-06T04:04:08.093Z,134.43
2019-04-06T04:05:13.227Z,137.93
2019-04-06T04:06:18.407Z,140.47
2019-04-06T04:07:23.559Z,127.33
2019-04-06T04:08:28.770Z,141.80
2019-04-06T04:09:34.025Z,125.53
2019-04-06T04:10:39.872Z,133.70
2019-04-06T04:11:45.251Z,130.97
2019-04-06T04:12:50.390Z,133.63
2019-04-06T04:13:55.460Z,135.50
2019-04-06T04:15:00.572Z,132.87
2019-04-06T04:16:05.679Z,126.00
2019-04-06T04:17:10.749Z,125.07
2019-04-06T04:18:15.872Z,130.30
2019-04-06T04:19:21.020Z,132.70
2019-04-06T04:20:26.454Z,133.57
2019-04-06T04:21:31.754Z,124.37
2019-04-06T04:22:36.945Z,132.67
2019-04-06T04:23:42.152Z,144.40
2019-04-06T04:24:47.249Z,139.00
2019-04-06T04:25:52.396Z,139.93
2019-04-06T04:26:57.613Z,138.97
2019-04-06T04:28:02.862Z,133.30
2019-04-06T04:29:08.140Z,141.83
2019-04-06T04:30:15.218Z,144.63
2019-04-06T04:31:20.106Z,147.63
2019-04-06T04:32:25.366Z,137.30
2019-04-06T04:33:30.465Z,137.43
2019-04-06T04:34:35.636Z,142.90
2019-04-06T04:35:41.839Z,141.37
2019-04-06T04:36:47.050Z,142.77
2019-04-06T04:37:52.195Z,139.63
2019-04-06T04:38:57.285Z,138.63
2019-04-06T04:40:02.514Z,148.33
2019-04-06T04:41:07.637Z,141.53
2019-04-06T04:42:13.924Z,147.17
2019-04-06T04:43:19.174Z,138.43
2019-04-06T04:44:24.419Z,135.07
2019-04-06T04:45:29.559Z,139.87
2019-04-06T04:46:34.791Z,148.27
2019-04-06T04:47:39.926Z,136.20
2019-04-06T04:48:45.171Z,137.03
2019-04-06T04:49:50.359Z,143.20
2019-04-06T04:50:55.627Z,143.10
2019-04-06T04:52:00.779Z,151.00
2019-04-06T04:53:05.847Z,143.23
2019-04-06T04:54:10.974Z,144.00
2019-04-06T04:55:16.075Z,146.20
2019-04-06T04:56:21.355Z,145.87
2019-04-06T04:57:26.513Z,147.80
2019-04-06T04:58:31.709Z,155.23
2019-04-06T04:59:36.868Z,151.00
2019-04-06T05:00:42.082Z,136.37
2019-04-06T05:01:47.223Z,147.27
2019-04-06T05:02:52.298Z,138.83
2019-04-06T05:03:57.395Z,150.23
2019-04-06T05:05:02.688Z,160.63
2019-04-06T05:06:07.732Z,153.17
2019-04-06T05:07:13.008Z,152.67
2019-04-06T05:08:18.220Z,153.67
2019-04-06T05:09:23.251Z,144.73
2019-04-06T05:10:28.289Z,155.87
2019-04-06T05:11:33.425Z,156.37
2019-04-06T05:12:38.600Z,153.20
2019-04-06T05:13:43.673Z,160.07
2019-04-06T05:14:58.202Z,153.07
2019-04-06T05:16:13.031Z,147.43
2019-04-06T05:17:20.020Z,158.13
2019-04-06T05:18:25.166Z,150.10
2019-04-06T05:19:30.413Z,151.20
2019-04-06T05:20:35.496Z,154.83
2019-04-06T05:21:40.532Z,149.20
2019-04-06T05:22:45.701Z,158.80
2019-04-06T05:23:50.935Z,153.00
2019-04-06T05:24:56.125Z,156.23
2019-04-06T05:26:01.301Z,150.00
2019-04-06T05:27:06.437Z,150.03
2019-04-06T05:28:11.602Z,153.23
2019-04-06T05:29:16.737Z,146.87
2019-04-06T05:30:22.259Z,153.87
2019-04-06T05:31:27.405Z,151.63
2019-04-06T05:32:32.767Z,153.30
2019-04-06T05:33:38.146Z,143.47
2019-04-06T05:34:43.344Z,151.00
2019-04-06T05:35:48.459Z,149.80
2019-04-06T05:36:53.669Z,156.33
2019-04-06T05:37:58.973Z,149.37
2019-04-06T05:39:05.205Z,155.20
2019-04-06T05:40:10.453Z,145.87
2019-04-06T05:41:15.494Z,154.80
2019-04-06T05:42:20.575Z,161.97
2019-04-06T05:43:25.762Z,167.30
2019-04-06T05:44:30.937Z,162.30
2019-04-06T05:45:37.175Z,164.70
2019-04-06T05:46:42.309Z,151.97
2019-04-06T05:47:47.339Z,156.00
2019-04-06T05:48:52.390Z,152.07
2019-04-06T05:49:57.457Z,163.30
2019-04-06T05:51:02.704Z,159.27
2019-04-06T05:52:07.920Z,163.93
2019-04-06T05:53:13.049Z,153.83
2019-04-06T05:54:18.090Z,153.77
2019-04-06T05:55:24.633Z,154.83
2019-04-06T05:56:29.905Z,159.00
2019-04-06T05:57:37.170Z,150.57
2019-04-06T05:58:44.144Z,153.47
2019-04-06T05:59:48.524Z,153.30
2019-04-06T06:00:53.657Z,150.37
2019-04-06T06:01:58.949Z,161.53
2019-04-06T06:03:05.163Z,162.83
2019-04-06T06:04:10.810Z,146.93
2019-04-06T06:05:16.711Z,151.70
2019-04-06T06:06:21.841Z,152.83
2019-04-06T06:07:27.112Z,157.37
2019-04-06T06:08:32.239Z,143.47
2019-04-06T06:09:37.408Z,158.80
2019-04-06T06:10:42.621Z,158.30
2019-04-06T06:11:47.823Z,147.93
2019-04-06T06:12:53.005Z,149.67
2019-04-06T06:13:58.259Z,139.77
2019-04-06T06:15:03.477Z,151.90
2019-04-06T06:16:08.651Z,137.93
2019-04-06T06:17:14.444Z,149.83
2019-04-06T06:18:26.385Z,154.07
2019-04-06T06:19:26.607Z,145.60
2019-04-06T06:20:31.735Z,157.47
2019-04-06T06:21:36.851Z,146.13
2019-04-06T06:22:42.060Z,149.47
2019-04-06T06:23:47.641Z,154.10
2019-04-06T06:24:52.918Z,146.50
2019-04-06T06:25:58.086Z,144.47
2019-04-06T06:27:03.189Z,159.87
2019-04-06T06:28:14.235Z,157.07
2019-04-06T06:29:15.206Z,152.97
2019-04-06T06:30:20.469Z,157.20
2019-04-06T06:31:25.743Z,157.37
2019-04-06T06:32:31.445Z,153.17
2019-04-06T06:33:36.809Z,156.47
2019-04-06T06:34:41.885Z,153.07
2019-04-06T06:35:47.076Z,156.17
2019-04-06T06:36:52.219Z,159.43
2019-04-06T06:37:57.274Z,149.07
2019-04-06T06:39:02.422Z,151.73
2019-04-06T06:40:09.295Z,161.50
2019-04-06T06:41:14.431Z,160.40
2019-04-06T06:42:19.507Z,152.17
2019-04-06T06:43:24.641Z,151.20
2019-04-06T06:44:30.980Z,158.33
2019-04-06T06:45:36.107Z,162.47
2019-04-06T06:46:41.205Z,159.53
2019-04-06T06:47:46.244Z,166.33
2019-04-06T06:48:51.386Z,163.17
2019-04-06T06:49:56.527Z,162.87
2019-04-06T06:51:01.850Z,162.17
2019-04-06T06:52:06.969Z,158.83
2019-04-06T06:53:12.308Z,162.53
2019-04-06T06:54:17.726Z,167.27
2019-04-06T06:55:22.907Z,155.50
2019-04-06T06:56:28.098Z,166.87
2019-04-06T06:57:33.240Z,148.13
2019-04-06T06:58:38.476Z,162.67
2019-04-06T06:59:43.698Z,161.07
2019-04-06T07:00:48.935Z,155.07
2019-04-06T07:01:54.048Z,154.33
2019-04-06T07:02:59.135Z,156.13
2019-04-06T07:04:04.216Z,155.07
2019-04-06T07:05:09.617Z,163.23
2019-04-06T07:06:14.872Z,158.90
2019-04-06T07:07:20.008Z,164.43
2019-04-06T07:08:25.131Z,163.13
2019-04-06T07:09:30.230Z,166.03
2019-04-06T07:10:35.590Z,159.47
2019-04-06T07:11:40.706Z,158.63
2019-04-06T07:12:46.279Z,156.70
2019-04-06T07:13:51.445Z,152.13
2019-04-06T07:14:56.583Z,157.97
2019-04-06T07:16:01.768Z,152.97
2019-04-06T07:17:06.925Z,149.87
2019-04-06T07:18:12.226Z,155.93
2019-04-06T07:19:17.331Z,146.13
2019-04-06T07:20:22.631Z,152.73
2019-04-06T07:21:28.082Z,148.17
2019-04-06T07:22:33.249Z,151.77
2019-04-06T07:23:38.342Z,155.90
2019-04-06T07:24:43.795Z,155.70
2019-04-06T07:25:57.680Z,154.70
2019-04-06T07:26:55.854Z,154.83
2019-04-06T07:28:01.266Z,153.73
2019-04-06T07:29:06.469Z,152.83
2019-04-06T07:30:12.326Z,152.43
2019-04-06T07:31:17.413Z,155.23
2019-04-06T07:32:22.630Z,149.60
2019-04-06T07:33:27.740Z,149.13
2019-04-06T07:34:32.843Z,154.30
2019-04-06T07:35:37.985Z,159.87
2019-04-06T07:36:43.278Z,154.53
2019-04-06T07:37:48.455Z,146.70
2019-04-06T07:38:53.694Z,149.47
2019-04-06T07:39:59.014Z,151.00
2019-04-06T07:41:04.139Z,163.00
2019-04-06T07:42:09.343Z,162.40
2019-04-06T07:43:15.920Z,156.20
2019-04-06T07:44:21.058Z,154.17
2019-04-06T07:45:26.123Z,153.10
2019-04-06T07:46:31.211Z,148.77
2019-04-06T07:47:36.279Z,149.93
2019-04-06T07:48:41.419Z,136.57
2019-04-06T07:49:47.016Z,146.33
2019-04-06T07:50:52.247Z,146.83
2019-04-06T07:51:57.461Z,146.47
2019-04-06T07:53:02.622Z,143.23
2019-04-06T07:54:07.788Z,142.00
2019-04-06T07:55:12.975Z,139.80
2019-04-06T07:56:20.455Z,143.83
2019-04-06T07:57:24.838Z,145.07
2019-04-06T07:58:29.885Z,134.80
2019-04-06T07:59:35.270Z,135.30
2019-04-06T08:00:40.527Z,141.77
2019-04-06T08:01:48.191Z,140.80
2019-04-06T08:02:52.551Z,137.23
2019-04-06T08:03:57.656Z,135.63
2019-04-06T08:05:02.711Z,145.87
2019-04-06T08:06:07.869Z,134.47
2019-04-06T08:07:12.979Z,140.87
2019-04-06T08:08:18.094Z,130.17
2019-04-06T08:09:23.215Z,143.37
2019-04-06T08:10:28.275Z,133.90
2019-04-06T08:11:33.498Z,142.13
2019-04-06T08:12:38.552Z,143.67
2019-04-06T08:13:43.750Z,131.83
2019-04-06T08:14:49.030Z,139.60
2019-04-06T08:15:54.361Z,133.43
2019-04-06T08:16:59.710Z,127.07
2019-04-06T08:18:04.850Z,131.50
2019-04-06T08:19:09.989Z,131.07
2019-04-06T08:20:15.339Z,135.77
2019-04-06T08:21:20.410Z,133.50
2019-04-06T08:22:25.625Z,134.53
2019-04-06T08:23:30.749Z,126.53
2019-04-06T08:24:35.825Z,124.97
2019-04-06T08:25:41.404Z,124.40
2019-04-06T08:26:46.930Z,126.30
2019-04-06T08:27:52.835Z,125.90
2019-04-06T08:29:01.437Z,127.77
2019-04-06T08:30:05.701Z,125.77
2019-04-06T08:31:10.915Z,121.40
2019-04-06T08:32:16.050Z,126.93
2019-04-06T08:33:21.092Z,124.97
2019-04-06T08:34:26.145Z,125.10
2019-04-06T08:35:31.430Z,121.33
2019-04-06T08:36:36.817Z,120.27
2019-04-06T08:37:41.990Z,115.37
2019-04-06T08:38:47.151Z,125.07
2019-04-06T08:39:52.327Z,122.10
2019-04-06T08:40:57.704Z,116.60
2019-04-06T08:42:04.444Z,119.33
2019-04-06T08:43:09.544Z,116.47
2019-04-06T08:44:14.692Z,114.87
2019-04-06T08:45:19.874Z,117.53
2019-04-06T08:46:25.182Z,117.60
2019-04-06T08:47:30.437Z,112.07
2019-04-06T08:48:35.639Z,122.43
2019-04-06T08:49:40.739Z,109.50
2019-04-06T08:50:46.020Z,111.77
2019-04-06T08:51:51.286Z,110.63
2019-04-06T08:52:56.509Z,108.67
2019-04-06T08:54:05.002Z,110.77
2019-04-06T08:55:10.498Z,113.10
2019-04-06T08:56:15.692Z,110.33
2019-04-06T08:57:22.787Z,110.87
2019-04-06T08:58:27.720Z,100.10
2019-04-06T08:59:32.769Z,104.70
2019-04-06T09:00:38.011Z,111.60
2019-04-06T09:01:43.391Z,98.83
2019-04-06T09:02:48.738Z,113.23
2019-04-06T09:03:54.711Z,105.10
2019-04-06T09:04:59.908Z,100.60
2019-04-06T09:06:05.095Z,105.50
2019-04-06T09:07:10.178Z,98.80
2019-04-06T09:08:15.438Z,102.20
2019-04-06T09:09:20.844Z,103.60
2019-04-06T09:10:25.885Z,100.23
2019-04-06T09:11:31.088Z,108.07
2019-04-06T09:12:36.378Z,99.80
2019-04-06T09:13:41.664Z,103.20
2019-04-06T09:14:46.804Z,102.27
2019-04-06T09:15:51.912Z,94.33
2019-04-06T09:16:57.210Z,97.10
2019-04-06T09:18:02.381Z,99.07
2019-04-06T09:19:07.515Z,89.60
2019-04-06T09:20:13.029Z,95.07
2019-04-06T09:21:18.629Z,95.73
2019-04-06T09:22:23.875Z,97.70
2019-04-06T09:23:28.958Z,94.73
2019-04-06T09:24:35.190Z,97.50
2019-04-06T09:25:40.487Z,93.87
2019-04-06T09:26:48.126Z,94.53
2019-04-06T09:27:53.474Z,88.83
2019-04-06T09:28:59.690Z,96.93
2019-04-06T09:30:07.058Z,89.97
2019-04-06T09:31:12.430Z,102.90
2019-04-06T09:32:17.900Z,93.33
2019-04-06T09:33:23.033Z,95.20
2019-04-06T09:34:30.565Z,96.63
2019-04-06T09:35:35.225Z,98.47
2019-04-06T09:36:40.395Z,99.50
2019-04-06T09:37:45.680Z,89.50
2019-04-06T09:38:51.041Z,96.70
2019-04-06T09:39:56.344Z,95.40
2019-04-06T09:41:01.805Z,93.60
2019-04-06T09:42:06.990Z,97.37
2019-04-06T09:43:12.218Z,95.90
2019-04-06T09:44:39.269Z,91.03
2019-04-06T09:45:59.626Z,98.53
2019-04-06T09:47:15.385Z,88.53
2019-04-06T09:48:32.109Z,89.07
2019-04-06T09:49:53.755Z,88.53
2019-04-06T09:51:20.734Z,86.57
2019-04-06T09:52:49.673Z,87.47
2019-04-06T09:54:25.938Z,90.43
2019-04-06T09:55:50.767Z,94.57
2019-04-06T09:57:14.995Z,85.67
2019-04-06T09:58:35.709Z,89.17
2019-04-06T09:59:53.097Z,90.63
2019-04-06T10:01:37.033Z,86.10
2019-04-06T10:02:41.097Z,89.93
2019-04-06T10:03:56.331Z,84.30
2019-04-06T10:05:20.771Z,89.50
2019-04-06T10:06:54.108Z,89.07
2019-04-06T10:08:13.641Z,84.20
2019-04-06T10:09:37.761Z,87.97
2019-04-06T10:11:00.568Z,79.93
2019-04-06T10:12:24.797Z,85.57
2019-04-06T10:13:55.033Z,81.03
2019-04-06T10:15:12.255Z,81.43
2019-04-06T10:16:35.247Z,81.87
2019-04-06T10:17:59.430Z,76.50
2019-04-06T10:19:18.972Z,82.03
2019-04-06T10:20:46.022Z,79.90
2019-04-06T10:22:10.163Z,79.30
2019-04-06T10:23:53.714Z,83.20
2019-04-06T10:25:33.217Z,84.00
2019-04-06T10:26:55.869Z,79.20
2019-04-06T10:28:21.617Z,80.70
2019-04-06T10:29:48.943Z,81.63
2019-04-06T10:31:03.748Z,81.73
2019-04-06T10:32:33.774Z,86.67
2019-04-06T10:33:45.051Z,79.90
2019-04-06T10:35:02.158Z,80.63
2019-04-06T10:36:13.496Z,77.30
2019-04-06T10:37:49.901Z,82.87
2019-04-06T10:39:29.655Z,80.43
2019-04-06T10:40:53.441Z,76.57
2019-04-06T10:42:29.926Z,82.97
2019-04-06T10:43:54.135Z,79.00
2019-04-06T10:45:24.782Z,82.00
2019-04-06T10:46:39.891Z,83.07
2019-04-06T10:47:53.759Z,81.90
2019-04-06T10:49:07.983Z,79.83
2019-04-06T10:50:30.713Z,84.27
2019-04-06T10:51:52.595Z,79.07
2019-04-06T10:53:10.823Z,81.10
2019-04-06T10:54:25.470Z,83.40
2019-04-06T10:55:38.191Z,79.90
2019-04-06T10:57:00.313Z,80.70
2019-04-06T10:58:16.911Z,82.00
2019-04-06T10:59:41.023Z,76.13
2019-04-06T11:01:03.675Z,79.90
2019-04-06T11:02:31.073Z,83.67
2019-04-06T11:03:42.783Z,81.63
2019-04-06T11:05:13.153Z,81.10
2019-04-06T11:06:43.325Z,80.43
2019-04-06T11:08:06.002Z,75.63
2019-04-06T11:09:36.365Z,79.03
2019-04-06T11:10:51.152Z,82.87
2019-04-06T11:12:07.070Z,79.00
2019-04-06T11:13:31.181Z,76.30
2019-04-06T11:14:53.874Z,78.47
2019-04-06T11:16:24.023Z,81.30
2019-04-06T11:17:46.924Z,76.90
2019-04-06T11:19:16.796Z,80.90
2019-04-06T11:20:55.989Z,81.57
2019-04-06T11:22:08.172Z,72.93
2019-04-06T11:23:47.721Z,73.87
2019-04-06T11:25:11.030Z,84.27
2019-04-06T11:26:35.471Z,77.97
2019-04-06T11:28:15.119Z,74.43
2019-04-06T11:29:27.557Z,79.33
2019-04-06T11:30:54.463Z,78.03
2019-04-06T11:32:21.711Z,71.33
2019-04-06T11:33:50.435Z,75.10
2019-04-06T11:35:04.694Z,79.83
2019-04-06T11:36:16.749Z,81.00
2019-04-06T11:37:50.095Z,75.73
2019-04-06T11:39:11.732Z,74.27
2019-04-06T11:40:35.989Z,73.80
2019-04-06T11:42:06.433Z,78.93
2019-04-06T11:43:29.889Z,75.77
2019-04-06T11:44:53.067Z,71.33
2019-04-06T11:46:06.682Z,74.47
2019-04-06T11:47:36.818Z,71.43
2019-04-06T11:48:59.467Z,76.97
2019-04-06T11:50:24.247Z,71.50
2019-04-06T11:52:06.576Z,75.23
2019-04-06T11:53:30.273Z,78.90
2019-04-06T11:55:12.480Z,72.40
2019-04-06T11:56:35.405Z,80.17
2019-04-06T11:57:59.622Z,67.63
2019-04-06T11:59:36.081Z,73.20
2019-04-06T12:01:01.279Z,77.67
2019-04-06T12:02:37.840Z,79.13
2019-04-06T12:04:18.244Z,77.07
2019-04-06T12:05:34.937Z,73.83
2019-04-06T12:06:49.285Z,72.53
2019-04-06T12:08:31.470Z,76.30
2019-04-06T12:09:45.412Z,73.90
2019-04-06T12:11:08.031Z,77.63
2019-04-06T12:12:27.542Z,80.37
2019-04-06T12:13:39.500Z,76.93
2019-04-06T12:15:02.261Z,73.17
2019-04-06T12:16:35.732Z,75.27
2019-04-06T12:17:49.459Z,73.93
2019-04-06T12:19:09.175Z,72.60
2019-04-06T12:20:29.347Z,76.63
2019-04-06T12:21:47.456Z,77.30
2019-04-06T12:23:15.160Z,78.03
2019-04-06T12:24:29.449Z,77.53
2019-04-06T12:25:42.990Z,73.60
2019-04-06T12:27:14.166Z,71.47
2019-04-06T12:28:36.461Z,71.37
2019-04-06T12:30:00.357Z,76.50
2019-04-06T12:31:24.584Z,73.97
2019-04-06T12:32:48.431Z,71.80
2019-04-06T12:34:02.774Z,82.50
2019-04-06T12:35:17.197Z,74.13
2019-04-06T12:36:33.712Z,74.27
2019-04-06T12:37:58.232Z,72.07
2019-04-06T12:39:29.374Z,72.53
2019-04-06T12:40:52.719Z,72.43
2019-04-06T12:42:15.495Z,69.73
2019-04-06T12:43:42.382Z,68.87
2019-04-06T12:45:12.765Z,72.97
2019-04-06T12:46:28.138Z,67.07
2019-04-06T12:47:55.379Z,72.13
2019-04-06T12:49:22.401Z,67.83
2019-04-06T12:50:45.129Z,67.90
2019-04-06T12:52:08.736Z,70.23
2019-04-06T12:53:38.694Z,71.20
2019-04-06T12:55:02.900Z,67.53
2019-04-06T12:56:28.160Z,68.67
2019-04-06T12:57:52.345Z,72.30
2019-04-06T12:59:16.463Z,72.87
2019-04-06T13:00:33.367Z,71.13
2019-04-06T13:01:56.028Z,70.47
2019-04-06T13:03:35.632Z,67.33
2019-04-06T13:04:56.850Z,66.33
2019-04-06T13:06:13.936Z,68.27
2019-04-06T13:07:30.648Z,65.37
2019-04-06T13:08:52.145Z,67.50
2019-04-06T13:10:15.227Z,67.77
2019-04-06T13:11:37.951Z,69.73
2019-04-06T13:13:03.279Z,70.03
2019-04-06T13:14:27.439Z,69.10
2019-04-06T13:15:47.645Z,72.70
2019-04-06T13:17:08.653Z,69.70
2019-04-06T13:18:33.213Z,67.97
2019-04-06T13:19:58.845Z,65.63
2019-04-06T13:21:32.024Z,74.60
2019-04-06T13:22:50.698Z,64.67
2019-04-06T13:24:21.032Z,66.93
2019-04-06T13:25:35.593Z,67.03
2019-04-06T13:27:15.464Z,69.77
2019-04-06T13:28:33.556Z,65.27
2019-04-06T13:29:56.663Z,65.07
2019-04-06T13:31:23.559Z,62.53
2019-04-06T13:32:46.869Z,66.03
2019-04-06T13:34:02.974Z,63.00
2019-04-06T13:35:25.839Z,63.00
2019-04-06T13:37:08.131Z,65.67
2019-04-06T13:38:38.158Z,64.13
2019-04-06T13:40:11.474Z,63.70
2019-04-06T13:41:44.715Z,60.20
2019-04-06T13:43:03.433Z,62.97
2019-04-06T13:44:28.303Z,66.97
2019-04-06T13:45:45.822Z,62.80
2019-04-06T13:47:10.161Z,69.47
2019-04-06T13:48:46.544Z,64.63
2019-04-06T13:50:20.859Z,59.37
2019-04-06T13:51:50.544Z,62.00
2019-04-06T13:53:20.626Z,61.03
2019-04-06T13:54:54.311Z,62.67
2019-04-06T13:56:21.468Z,60.73
2019-04-06T13:57:45.723Z,61.33
2019-04-06T13:59:15.869Z,58.47
2019-04-06T14:00:58.403Z,62.00
2019-04-06T14:02:25.891Z,62.80
2019-04-06T14:03:50.226Z,56.00
2019-04-06T14:05:02.862Z,61.20
2019-04-06T14:06:28.121Z,57.03
2019-04-06T14:07:55.440Z,57.27
2019-04-06T14:09:29.574Z,56.10
2019-04-06T14:10:53.781Z,54.17
2019-04-06T14:12:04.832Z,57.60
2019-04-06T14:13:24.510Z,53.33
2019-04-06T14:14:48.795Z,54.73
2019-04-06T14:16:13.195Z,55.00
2019-04-06T14:17:49.962Z,56.93
2019-04-06T14:19:17.572Z,54.23
2019-04-06T14:20:40.628Z,54.40
2019-04-06T14:21:57.978Z,60.37
2019-04-06T14:23:27.446Z,55.47
2019-04-06T14:24:40.515Z,51.73
2019-04-06T14:26:20.200Z,51.93
2019-04-06T14:27:38.457Z,51.70
2019-04-06T14:29:20.661Z,50.97
2019-04-06T14:30:35.696Z,55.00
2019-04-06T14:31:55.731Z,55.57
2019-04-06T14:33:35.310Z,55.57
2019-04-06T14:34:58.484Z,51.30
2019-04-06T14:36:25.640Z,52.03
2019-04-06T14:37:49.818Z,56.37
2019-04-06T14:39:05.854Z,47.97
2019-04-06T14:40:33.561Z,47.60
2019-04-06T14:42:00.854Z,47.50
2019-04-06T14:43:36.075Z,50.77
2019-04-06T14:44:54.794Z,48.60
2019-04-06T14:46:10.718Z,44.97
2019-04-06T14:47:37.670Z,47.53
2019-04-06T14:49:13.826Z,45.60
2019-04-06T14:50:20.326Z,45.33
2019-04-06T14:51:47.225Z,48.93
2019-04-06T14:53:10.243Z,47.63
2019-04-06T14:54:34.548Z,48.57
2019-04-06T14:55:48.591Z,48.07
2019-04-06T14:57:07.193Z,48.50
2019-04-06T14:58:34.158Z,46.57
2019-04-06T15:00:04.555Z,45.03
2019-04-06T15:01:40.286Z,43.30
2019-04-06T15:02:40.979Z,40.53
2019-04-06T15:04:04.355Z,42.97
2019-04-06T15:05:25.045Z,43.03
2019-04-06T15:07:10.827Z,43.97
2019-04-06T15:08:32.671Z,42.53
2019-04-06T15:09:54.654Z,42.87
2019-04-06T15:11:10.767Z,42.40
2019-04-06T15:12:32.158Z,40.30
2019-04-06T15:13:55.285Z,42.77
2019-04-06T15:15:17.567Z,46.10
2019-04-06T15:16:29.385Z,37.67
2019-04-06T15:17:56.741Z,38.77
2019-04-06T15:19:17.584Z,41.90
2019-04-06T15:20:44.114Z,41.70
2019-04-06T15:22:14.137Z,37.77
2019-04-06T15:23:37.398Z,36.60
2019-04-06T15:25:07.677Z,35.67
2019-04-06T15:26:19.639Z,37.10